Nearby METAR Reports

 

KICL - Clarinda, Iowa, USA
Distance from station: N 49mi, 79km
Updated: Thu, 18-Jan-2018 5:35pm CST
Clear
Clear
 Wind from S
Wind: S 8 mph , 13 km/h
Temperature: 32°F , 0°C
Wind Chill: 25°F , -4°C
Dew Point: 25°F , -4°C
Humidity: 75%
Clouds: Clear
Visibility: 10 miles , 16 km
2018/01/18 23:35 KICL 182335Z AUTO 19007KT 10SM CLR 00/M04 RMK AO2
KDSM - Des Moines, Iowa, USA
Distance from station: NNE 122mi, 196km
Updated: Thu, 18-Jan-2018 4:54pm CST
Mostly cloudy
Mostly cloudy
 Wind from SSW
Wind: SSW 10 mph , 17 km/h
Temperature: 36°F , 2°C
Wind Chill: 29°F , -2°C
Dew Point: 21°F , -6°C
Humidity: 56%
Barometer: 29.95 inHg , 1014.2 hPa
Clouds: Mostly cloudy
Visibility: 10 miles , 16 km
Cloud details: Partly cloudy 20000 ft
Mostly cloudy 25000 ft
2018/01/18 22:54 KDSM 182254Z 21009KT 10SM SCT200 BKN250 02/M06 A2995 RMK AO2 SLP154 T00221061 $
KFNB - Falls City, Nebraska, USA
Distance from station: W 50mi, 80km
Updated: Thu, 18-Jan-2018 4:53pm CST
Clear
Clear
 Wind from S
Wind: S 7 mph , 11 km/h
Temperature: 39°F , 4°C
Wind Chill: 34°F , 1°C
Dew Point: 25°F , -4°C
Humidity: 56%
Barometer: 29.99 inHg , 1015.6 hPa
Clouds: Clear
Visibility: 10 miles , 16 km
2018/01/18 22:53 KFNB 182253Z AUTO 17006KT 10SM CLR 04/M04 A2999 RMK AO2 SLP169 T00441044
 
KMCI - Kansas City, Missouri, USA
Distance from station: S 65mi, 104km
Updated: Thu, 18-Jan-2018 4:53pm CST
Mostly cloudy
Mostly cloudy
 Wind from SSW
Wind: SSW 17 mph , 28 km/h, Gust: 24 mph , 39 km/h
Temperature: 36°F , 2°C
Wind Chill: 26°F , -3°C
Dew Point: 21°F , -6°C
Humidity: 56%
Barometer: 30.06 inHg , 1017.9 hPa
Clouds: Mostly cloudy
Visibility: 10 miles , 16 km
Cloud details: Mostly cloudy 25000 ft
2018/01/18 22:53 KMCI 182253Z 20015G21KT 10SM BKN250 02/M06 A3006 RMK AO2 SLP189 T00221056
KOMA - Omaha, Nebraska, USA
Distance from station: NNW 105mi, 169km
Updated: Thu, 18-Jan-2018 4:52pm CST
Overcast
Overcast
 Wind from S
Wind: S 14 mph , 22 km/h
Temperature: 34°F , 1°C
Wind Chill: 25°F , -4°C
Dew Point: 21°F , -6°C
Humidity: 60%
Barometer: 29.94 inHg , 1013.9 hPa
Clouds: Overcast
Visibility: 10 miles , 16 km
Cloud details: Overcast 25000 ft
2018/01/18 22:52 KOMA 182252Z 17012KT 10SM OVC250 01/M06 A2994 RMK AO2 SLP150 T00061056
KRDK - Red Oak, Iowa, USA
Distance from station: N 70mi, 112km
Updated: Thu, 18-Jan-2018 5:35pm CST
Clear
Clear
 Wind from SSW
Wind: SSW 10 mph , 17 km/h
Temperature: 32°F , 0°C
Wind Chill: 24°F , -4°C
Dew Point: 25°F , -4°C
Humidity: 75%
Barometer: 29.97 inHg , 1014.9 hPa
Clouds: Clear
Visibility: 10 miles , 16 km
2018/01/18 23:35 KRDK 182335Z AUTO 20009KT 10SM CLR 00/M04 A2997 RMK AO2
 
KSTJ - Saint Joseph, Missouri, USA
Distance from station: SW 23mi, 37km
Updated: Thu, 18-Jan-2018 4:53pm CST
Clear
Clear
 Wind from S
Wind: S 9 mph , 15 km/h
Temperature: 37°F , 3°C
Wind Chill: 30°F , -1°C
Dew Point: 25°F , -4°C
Humidity: 60%
Barometer: 30.05 inHg , 1017.6 hPa
Clouds: Clear
Visibility: 10 miles , 16 km
2018/01/18 22:53 KSTJ 182253Z 18008KT 10SM CLR 03/M04 A3005 RMK AO2 SLP186 T00281039
KTOP - Topeka, Kansas, USA
Distance from station: SW 85mi, 137km
Updated: Thu, 18-Jan-2018 4:53pm CST
Clear
Clear
 Wind from S
Wind: S 9 mph , 15 km/h
Temperature: 43°F , 6°C
Wind Chill: 38°F , 3°C
Dew Point: 25°F , -4°C
Humidity: 49%
Barometer: 30.06 inHg , 1017.9 hPa
Clouds: Clear
Visibility: 10 miles , 16 km
2018/01/18 22:53 KTOP 182253Z 18008KT 10SM CLR 06/M04 A3006 RMK AO2 SLP186 T00561039
KICT - Wichita, Kansas, USA
Distance from station: SW 215mi, 346km
Updated: Thu, 18-Jan-2018 4:53pm CST
Mostly cloudy
Mostly cloudy
 Wind from S
Wind: S 15 mph , 24 km/h, Gust: 23 mph , 37 km/h
Temperature: 50°F , 10°C
Wind Chill: 45°F , 7°C
Dew Point: 23°F , -5°C
Humidity: 35%
Barometer: 30.07 inHg , 1018.3 hPa
Clouds: Mostly cloudy
Visibility: 10 miles , 16 km
Cloud details: Partly cloudy 15000 ft
Mostly cloudy 18000 ft
2018/01/18 22:53 KICT 182253Z 19013G20KT 10SM SCT150 BKN180 10/M05 A3007 RMK AO2 SLP192 T01001050